Time,TemperatureF,DewpointF,PressureIn,WindDirection,WindDirectionDegrees,WindSpeedMPH,WindSpeedGustMPH,Humidity,HourlyPrecipIn,Conditions,Clouds,dailyrainin,SoftwareType,DateUTC
2013-03-04 00:05:00,28.3,24.0,29.91,ESE,103,13.0,18.0,84,0.00,,,0.00,weatherlink.com 1.10,2013-03-04 06:05:00,
2013-03-04 00:20:00,28.1,24.0,29.91,ESE,110,9.0,17.0,85,0.00,,,0.00,weatherlink.com 1.10,2013-03-04 06:20:00,
2013-03-04 00:35:00,28.1,24.0,29.90,East,100,10.0,17.0,85,0.00,,,0.00,weatherlink.com 1.10,2013-03-04 06:35:00,
2013-03-04 00:50:00,28.2,25.0,29.89,ESE,108,13.0,17.0,86,0.00,,,0.00,weatherlink.com 1.10,2013-03-04 06:50:00,
2013-03-04 01:05:00,28.2,25.0,29.88,East,99,6.0,17.0,86,0.00,,,0.00,weatherlink.com 1.10,2013-03-04 07:05:00,
2013-03-04 01:20:00,28.2,25.0,29.88,ESE,103,9.0,23.0,87,0.00,,,0.00,weatherlink.com 1.10,2013-03-04 07:20:00,
2013-03-04 01:35:00,28.3,25.0,29.89,ESE,115,7.0,16.0,87,0.00,,,0.00,weatherlink.com 1.10,2013-03-04 07:35:00,
2013-03-04 01:50:00,28.3,25.0,29.88,East,101,8.0,16.0,88,0.00,,,0.00,weatherlink.com 1.10,2013-03-04 07:50:00,
2013-03-04 02:05:00,28.4,25.0,29.86,ESE,106,9.0,17.0,88,0.00,,,0.00,weatherlink.com 1.10,2013-03-04 08:05:00,
2013-03-04 02:20:00,28.4,25.0,29.86,East,99,7.0,23.0,88,0.00,,,0.00,weatherlink.com 1.10,2013-03-04 08:20:00,
2013-03-04 02:35:00,28.3,26.0,29.86,East,88,3.0,17.0,89,0.00,,,0.00,weatherlink.com 1.10,2013-03-04 08:35:00,
2013-03-04 02:50:00,28.3,26.0,29.85,East,98,9.0,18.0,89,0.00,,,0.00,weatherlink.com 1.10,2013-03-04 08:50:00,
2013-03-04 03:05:00,28.2,25.0,29.84,East,101,7.0,18.0,89,0.00,,,0.00,weatherlink.com 1.10,2013-03-04 09:05:00,
2013-03-04 03:20:00,28.1,25.0,29.84,East,97,11.0,18.0,89,0.00,,,0.00,weatherlink.com 1.10,2013-03-04 09:20:00,
2013-03-04 03:35:00,28.1,26.0,29.83,ESE,105,10.0,17.0,90,0.00,,,0.00,weatherlink.com 1.10,2013-03-04 09:35:00,
2013-03-04 03:50:00,28.3,26.0,29.83,ESE,106,9.0,19.0,90,0.00,,,0.00,weatherlink.com 1.10,2013-03-04 09:50:00,
2013-03-04 04:06:00,28.3,26.0,29.83,East,90,10.0,15.0,90,0.00,,,0.00,weatherlink.com 1.10,2013-03-04 10:06:00,
2013-03-04 04:21:00,28.3,26.0,29.83,East,99,7.0,21.0,90,0.00,,,0.00,weatherlink.com 1.10,2013-03-04 10:21:00,
2013-03-04 04:36:00,28.3,26.0,29.83,East,92,5.0,16.0,90,0.00,,,0.00,weatherlink.com 1.10,2013-03-04 10:36:00,
2013-03-04 04:51:00,28.3,26.0,29.83,ESE,106,4.0,18.0,90,0.00,,,0.00,weatherlink.com 1.10,2013-03-04 10:51:00,
2013-03-04 05:06:00,28.3,26.0,29.83,ESE,112,4.0,21.0,90,0.00,,,0.00,weatherlink.com 1.10,2013-03-04 11:06:00,
2013-03-04 05:21:00,28.3,26.0,29.83,ESE,112,9.0,18.0,90,0.00,,,0.00,weatherlink.com 1.10,2013-03-04 11:21:00,
2013-03-04 05:36:00,28.2,26.0,29.83,ESE,109,7.0,15.0,90,0.00,,,0.00,weatherlink.com 1.10,2013-03-04 11:36:00,
2013-03-04 05:51:00,28.4,26.0,29.83,ESE,102,5.0,18.0,90,0.00,,,0.00,weatherlink.com 1.10,2013-03-04 11:51:00,
2013-03-04 06:06:00,28.5,26.0,29.84,ESE,105,15.0,17.0,90,0.00,,,0.00,weatherlink.com 1.10,2013-03-04 12:06:00,
2013-03-04 06:21:00,28.7,26.0,29.83,ESE,107,12.0,15.0,90,0.00,,,0.00,weatherlink.com 1.10,2013-03-04 12:21:00,
2013-03-04 06:36:00,28.7,26.0,29.84,East,94,11.0,16.0,90,0.00,,,0.00,weatherlink.com 1.10,2013-03-04 12:36:00,
2013-03-04 06:51:00,28.7,26.0,29.82,ESE,103,5.0,16.0,90,0.00,,,0.00,weatherlink.com 1.10,2013-03-04 12:51:00,
2013-03-04 07:06:00,28.9,27.0,29.83,ESE,111,9.0,16.0,91,0.00,,,0.00,weatherlink.com 1.10,2013-03-04 13:06:00,
2013-03-04 07:21:00,28.9,26.0,29.82,ESE,111,11.0,19.0,90,0.00,,,0.00,weatherlink.com 1.10,2013-03-04 13:21:00,
2013-03-04 07:36:00,28.9,26.0,29.82,East,98,11.0,20.0,90,0.00,,,0.00,weatherlink.com 1.10,2013-03-04 13:36:00,
2013-03-04 07:51:00,28.8,26.0,29.82,ESE,119,8.0,15.0,90,0.00,,,0.00,weatherlink.com 1.10,2013-03-04 13:51:00,
2013-03-04 08:06:00,29.4,27.0,29.83,ESE,105,5.0,14.0,90,0.00,,,0.00,weatherlink.com 1.10,2013-03-04 14:06:00,
2013-03-04 08:21:00,29.9,27.0,29.82,East,92,8.0,17.0,89,0.00,,,0.00,weatherlink.com 1.10,2013-03-04 14:21:00,
2013-03-04 08:36:00,30.5,27.0,29.82,ESE,104,10.0,18.0,88,0.00,,,0.00,weatherlink.com 1.10,2013-03-04 14:36:00,
2013-03-04 08:51:00,31.0,28.0,29.83,ESE,117,12.0,18.0,88,0.00,,,0.00,weatherlink.com 1.10,2013-03-04 14:51:00,
2013-03-04 09:06:00,31.7,28.0,29.82,ESE,122,10.0,15.0,87,0.00,,,0.00,weatherlink.com 1.10,2013-03-04 15:06:00,
2013-03-04 09:21:00,32.4,28.0,29.82,East,101,9.0,18.0,85,0.00,,,0.00,weatherlink.com 1.10,2013-03-04 15:21:00,
2013-03-04 09:36:00,33.1,29.0,29.83,ESE,118,10.0,16.0,85,0.00,,,0.00,weatherlink.com 1.10,2013-03-04 15:36:00,
2013-03-04 09:51:00,32.9,28.0,29.83,ESE,120,5.0,16.0,83,0.00,,,0.00,weatherlink.com 1.10,2013-03-04 15:51:00,
2013-03-04 10:06:00,33.0,29.0,29.82,ESE,107,5.0,17.0,84,0.01,,,0.01,weatherlink.com 1.10,2013-03-04 16:06:00,
2013-03-04 10:21:00,33.2,29.0,29.82,ESE,107,3.0,17.0,84,0.01,,,0.01,weatherlink.com 1.10,2013-03-04 16:21:00,
2013-03-04 10:36:00,33.7,29.0,29.83,ESE,103,5.0,14.0,83,0.01,,,0.01,weatherlink.com 1.10,2013-03-04 16:36:00,
2013-03-04 10:51:00,34.1,29.0,29.83,ESE,115,9.0,15.0,82,0.02,,,0.02,weatherlink.com 1.10,2013-03-04 16:51:00,
2013-03-04 11:06:00,35.4,30.0,29.83,ESE,105,11.0,17.0,79,0.01,,,0.02,weatherlink.com 1.10,2013-03-04 17:06:00,
2013-03-04 11:21:00,35.8,30.0,29.84,SE,135,8.0,18.0,78,0.02,,,0.03,weatherlink.com 1.10,2013-03-04 17:21:00,
2013-03-04 11:36:00,35.7,29.0,29.84,East,94,11.0,14.0,77,0.02,,,0.03,weatherlink.com 1.10,2013-03-04 17:36:00,
2013-03-04 11:51:00,36.4,30.0,29.83,East,99,6.0,13.0,77,0.02,,,0.04,weatherlink.com 1.10,2013-03-04 17:51:00,
2013-03-04 12:06:00,36.1,30.0,29.83,ESE,115,10.0,16.0,78,0.02,,,0.04,weatherlink.com 1.10,2013-03-04 18:06:00,
2013-03-04 12:21:00,36.5,30.0,29.83,ESE,105,8.0,16.0,76,0.02,,,0.05,weatherlink.com 1.10,2013-03-04 18:21:00,
2013-03-04 12:36:00,37.4,30.0,29.82,ESE,107,5.0,14.0,76,0.02,,,0.05,weatherlink.com 1.10,2013-03-04 18:36:00,
2013-03-04 12:51:00,37.6,30.0,29.81,ESE,104,8.0,14.0,75,0.02,,,0.06,weatherlink.com 1.10,2013-03-04 18:51:00,
2013-03-04 13:06:00,37.8,30.0,29.81,ESE,119,13.0,16.0,73,0.02,,,0.06,weatherlink.com 1.10,2013-03-04 19:06:00,
2013-03-04 13:21:00,37.8,30.0,29.81,East,88,14.0,17.0,73,0.01,,,0.06,weatherlink.com 1.10,2013-03-04 19:21:00,
2013-03-04 13:37:00,37.7,30.0,29.80,ESE,102,7.0,15.0,74,0.01,,,0.06,weatherlink.com 1.10,2013-03-04 19:37:00,
2013-03-04 13:52:00,37.6,30.0,29.80,East,88,3.0,18.0,73,0.01,,,0.07,weatherlink.com 1.10,2013-03-04 19:52:00,
2013-03-04 14:07:00,37.8,30.0,29.80,ESE,109,5.0,16.0,73,0.01,,,0.07,weatherlink.com 1.10,2013-03-04 20:07:00,
2013-03-04 14:22:00,38.0,30.0,29.81,East,88,11.0,15.0,74,0.01,,,0.07,weatherlink.com 1.10,2013-03-04 20:22:00,
2013-03-04 14:37:00,37.6,30.0,29.81,ENE,70,9.0,12.0,74,0.01,,,0.07,weatherlink.com 1.10,2013-03-04 20:37:00,
2013-03-04 14:52:00,37.7,30.0,29.82,East,92,7.0,13.0,74,0.01,,,0.08,weatherlink.com 1.10,2013-03-04 20:52:00,
2013-03-04 15:07:00,37.0,30.0,29.82,East,88,2.0,12.0,76,0.01,,,0.08,weatherlink.com 1.10,2013-03-04 21:07:00,
2013-03-04 15:22:00,37.1,30.0,29.82,East,88,10.0,11.0,76,0.01,,,0.08,weatherlink.com 1.10,2013-03-04 21:22:00,
2013-03-04 15:37:00,36.9,30.0,29.83,ENE,65,4.0,12.0,76,0.01,,,0.08,weatherlink.com 1.10,2013-03-04 21:37:00,
2013-03-04 15:52:00,36.8,30.0,29.83,ENE,60,0.0,11.0,76,0.00,,,0.08,weatherlink.com 1.10,2013-03-04 21:52:00,
2013-03-04 16:07:00,36.8,30.0,29.84,ENE,78,7.0,10.0,76,0.00,,,0.08,weatherlink.com 1.10,2013-03-04 22:07:00,
2013-03-04 16:22:00,36.7,30.0,29.84,ENE,70,3.0,11.0,76,0.00,,,0.08,weatherlink.com 1.10,2013-03-04 22:22:00,
2013-03-04 16:37:00,36.6,30.0,29.84,ENE,71,5.0,12.0,76,0.00,,,0.08,weatherlink.com 1.10,2013-03-04 22:37:00,
2013-03-04 16:52:00,36.2,30.0,29.85,ENE,76,4.0,10.0,78,0.00,,,0.08,weatherlink.com 1.10,2013-03-04 22:52:00,
2013-03-04 17:07:00,35.9,30.0,29.86,East,83,8.0,10.0,78,0.00,,,0.08,weatherlink.com 1.10,2013-03-04 23:07:00,
2013-03-04 17:22:00,35.5,30.0,29.85,East,88,5.0,11.0,79,0.00,,,0.08,weatherlink.com 1.10,2013-03-04 23:22:00,
2013-03-04 17:37:00,35.2,30.0,29.86,East,82,2.0,11.0,80,0.00,,,0.08,weatherlink.com 1.10,2013-03-04 23:37:00,
2013-03-04 17:52:00,35.0,30.0,29.86,ENE,72,8.0,11.0,81,0.00,,,0.08,weatherlink.com 1.10,2013-03-04 23:52:00,
2013-03-04 18:07:00,34.6,30.0,29.87,ENE,76,7.0,12.0,82,0.00,,,0.08,weatherlink.com 1.10,2013-03-05 00:07:00,
2013-03-04 18:22:00,34.3,30.0,29.88,ENE,74,5.0,10.0,83,0.00,,,0.08,weatherlink.com 1.10,2013-03-05 00:22:00,
2013-03-04 18:37:00,34.2,30.0,29.90,ENE,74,0.0,8.0,83,0.00,,,0.08,weatherlink.com 1.10,2013-03-05 00:37:00,
2013-03-04 18:52:00,34.1,30.0,29.92,ENE,74,0.0,7.0,83,0.00,,,0.08,weatherlink.com 1.10,2013-03-05 00:52:00,
2013-03-04 19:07:00,34.0,29.0,29.94,ENE,73,0.0,5.0,83,0.00,,,0.08,weatherlink.com 1.10,2013-03-05 01:07:00,
2013-03-04 19:22:00,33.9,29.0,29.94,ENE,73,0.0,0.0,83,0.00,,,0.08,weatherlink.com 1.10,2013-03-05 01:22:00,
2013-03-04 19:37:00,33.8,30.0,29.95,ENE,73,0.0,0.0,84,0.00,,,0.08,weatherlink.com 1.10,2013-03-05 01:37:00,
2013-03-04 19:52:00,33.7,29.0,29.95,ENE,73,0.0,0.0,84,0.00,,,0.08,weatherlink.com 1.10,2013-03-05 01:52:00,
2013-03-04 20:07:00,33.6,29.0,29.95,ENE,73,0.0,0.0,84,0.00,,,0.08,weatherlink.com 1.10,2013-03-05 02:07:00,
2013-03-04 20:22:00,33.6,29.0,29.97,ENE,73,0.0,0.0,84,0.00,,,0.08,weatherlink.com 1.10,2013-03-05 02:22:00,
2013-03-04 20:37:00,33.5,29.0,29.97,ENE,73,0.0,0.0,84,0.00,,,0.08,weatherlink.com 1.10,2013-03-05 02:37:00,
2013-03-04 20:52:00,33.4,29.0,29.97,ENE,73,0.0,0.0,84,0.00,,,0.08,weatherlink.com 1.10,2013-03-05 02:52:00,
2013-03-04 21:07:00,33.0,29.0,29.97,ENE,73,0.0,0.0,86,0.00,,,0.08,weatherlink.com 1.10,2013-03-05 03:07:00,
2013-03-04 21:22:00,33.0,29.0,29.97,ENE,73,0.0,0.0,86,0.00,,,0.08,weatherlink.com 1.10,2013-03-05 03:22:00,
2013-03-04 21:37:00,32.9,30.0,29.97,ENE,73,0.0,0.0,87,0.00,,,0.08,weatherlink.com 1.10,2013-03-05 03:37:00,
2013-03-04 21:52:00,32.8,29.0,29.98,ENE,73,0.0,0.0,87,0.00,,,0.08,weatherlink.com 1.10,2013-03-05 03:52:00,
2013-03-04 22:07:00,32.7,29.0,29.97,ENE,73,0.0,0.0,87,0.00,,,0.08,weatherlink.com 1.10,2013-03-05 04:07:00,
2013-03-04 22:22:00,32.5,29.0,29.97,ENE,70,0.0,4.0,88,0.00,,,0.08,weatherlink.com 1.10,2013-03-05 04:22:00,
2013-03-04 22:37:00,32.4,30.0,29.97,ENE,70,0.0,3.0,89,0.00,,,0.08,weatherlink.com 1.10,2013-03-05 04:37:00,
2013-03-04 22:52:00,32.3,30.0,29.97,ENE,70,0.0,0.0,89,0.00,,,0.08,weatherlink.com 1.10,2013-03-05 04:52:00,
2013-03-04 23:07:00,32.1,30.0,29.96,ENE,70,0.0,0.0,90,0.00,,,0.08,weatherlink.com 1.10,2013-03-05 05:07:00,
2013-03-04 23:22:00,31.9,29.0,29.97,ENE,70,0.0,0.0,90,0.00,,,0.08,weatherlink.com 1.10,2013-03-05 05:22:00,
2013-03-04 23:37:00,31.8,30.0,29.97,ENE,69,0.0,3.0,91,0.00,,,0.08,weatherlink.com 1.10,2013-03-05 05:37:00,
2013-03-04 23:52:00,31.7,29.0,29.97,ENE,69,0.0,0.0,91,0.00,,,0.08,weatherlink.com 1.10,2013-03-05 05:52:00,